sensor_id;sensor_type;location;lat;lon;timestamp;pressure;altitude;pressure_sealevel;temperature;humidity
12775;BME280;6451;42.630;23.382;2023-01-13T00:02:01;94733.50;;;3.51;100.00
12775;BME280;6451;42.630;23.382;2023-01-13T00:04:31;94745.63;;;3.48;100.00
12775;BME280;6451;42.630;23.382;2023-01-13T00:07:00;94672.78;;;3.03;100.00
12775;BME280;6451;42.630;23.382;2023-01-13T00:09:29;94746.91;;;3.51;100.00
12775;BME280;6451;42.630;23.382;2023-01-13T00:11:57;94750.38;;;3.51;100.00
12775;BME280;6451;42.630;23.382;2023-01-13T00:14:48;94746.84;;;3.56;100.00
12775;BME280;6451;42.630;23.382;2023-01-13T00:17:21;94742.06;;;3.53;100.00
12775;BME280;6451;42.630;23.382;2023-01-13T00:19:48;94746.34;;;3.54;100.00
12775;BME280;6451;42.630;23.382;2023-01-13T00:22:16;94742.78;;;3.58;100.00
12775;BME280;6451;42.630;23.382;2023-01-13T00:24:51;94747.28;;;3.63;100.00
12775;BME280;6451;42.630;23.382;2023-01-13T00:30:15;94745.75;;;3.57;100.00
12775;BME280;6451;42.630;23.382;2023-01-13T00:32:45;94745.78;;;3.38;100.00
12775;BME280;6451;42.630;23.382;2023-01-13T00:35:13;94747.44;;;3.53;100.00
12775;BME280;6451;42.630;23.382;2023-01-13T00:37:42;94739.78;;;3.60;100.00
12775;BME280;6451;42.630;23.382;2023-01-13T00:40:10;94702.69;;;3.29;100.00
12775;BME280;6451;42.630;23.382;2023-01-13T00:42:38;94745.44;;;3.58;100.00
12775;BME280;6451;42.630;23.382;2023-01-13T00:45:23;94744.44;;;3.54;100.00
12775;BME280;6451;42.630;23.382;2023-01-13T00:47:52;94744.34;;;3.59;100.00
12775;BME280;6451;42.630;23.382;2023-01-13T00:50:23;94743.84;;;3.57;100.00
12775;BME280;6451;42.630;23.382;2023-01-13T00:52:56;94691.28;;;3.24;100.00
12775;BME280;6451;42.630;23.382;2023-01-13T00:55:26;94740.09;;;3.58;100.00
12775;BME280;6451;42.630;23.382;2023-01-13T00:57:54;94738.00;;;3.55;100.00
12775;BME280;6451;42.630;23.382;2023-01-13T01:00:27;94741.47;;;3.56;100.00
12775;BME280;6451;42.630;23.382;2023-01-13T01:03:02;94733.00;;;3.49;100.00
12775;BME280;6451;42.630;23.382;2023-01-13T01:05:33;94711.41;;;3.40;100.00
12775;BME280;6451;42.630;23.382;2023-01-13T01:08:01;94733.72;;;3.54;100.00
12775;BME280;6451;42.630;23.382;2023-01-13T01:10:32;94729.59;;;3.62;100.00
12775;BME280;6451;42.630;23.382;2023-01-13T01:13:00;94725.81;;;3.63;100.00
12775;BME280;6451;42.630;23.382;2023-01-13T01:15:28;94726.72;;;3.72;100.00
12775;BME280;6451;42.630;23.382;2023-01-13T01:17:57;94722.09;;;3.59;100.00
12775;BME280;6451;42.630;23.382;2023-01-13T01:20:27;94718.84;;;3.62;100.00
12775;BME280;6451;42.630;23.382;2023-01-13T01:22:56;94724.13;;;3.67;100.00
12775;BME280;6451;42.630;23.382;2023-01-13T01:25:24;94718.19;;;3.70;100.00
12775;BME280;6451;42.630;23.382;2023-01-13T01:27:54;94653.38;;;3.30;100.00
12775;BME280;6451;42.630;23.382;2023-01-13T01:30:22;94700.81;;;3.49;100.00
12775;BME280;6451;42.630;23.382;2023-01-13T01:32:49;94717.75;;;3.63;100.00
12775;BME280;6451;42.630;23.382;2023-01-13T01:35:27;94720.50;;;3.58;100.00
12775;BME280;6451;42.630;23.382;2023-01-13T01:37:54;94718.13;;;3.56;100.00
12775;BME280;6451;42.630;23.382;2023-01-13T01:40:22;94710.88;;;3.57;100.00
12775;BME280;6451;42.630;23.382;2023-01-13T01:42:53;94714.19;;;3.68;100.00
12775;BME280;6451;42.630;23.382;2023-01-13T01:45:37;94687.75;;;3.61;100.00
12775;BME280;6451;42.630;23.382;2023-01-13T01:48:05;94711.47;;;3.54;100.00
12775;BME280;6451;42.630;23.382;2023-01-13T01:50:38;94710.28;;;3.60;100.00
12775;BME280;6451;42.630;23.382;2023-01-13T01:53:12;94712.69;;;3.61;100.00
12775;BME280;6451;42.630;23.382;2023-01-13T01:55:42;94706.84;;;3.73;100.00
12775;BME280;6451;42.630;23.382;2023-01-13T01:58:14;94706.53;;;3.75;100.00
12775;BME280;6451;42.630;23.382;2023-01-13T02:00:42;94696.59;;;3.61;100.00
12775;BME280;6451;42.630;23.382;2023-01-13T02:03:10;94704.63;;;3.61;100.00
12775;BME280;6451;42.630;23.382;2023-01-13T02:05:38;94705.50;;;3.57;100.00
12775;BME280;6451;42.630;23.382;2023-01-13T02:08:07;94686.91;;;3.47;100.00
12775;BME280;6451;42.630;23.382;2023-01-13T02:10:35;94684.78;;;3.44;100.00
12775;BME280;6451;42.630;23.382;2023-01-13T02:13:04;94688.34;;;3.39;100.00
12775;BME280;6451;42.630;23.382;2023-01-13T02:15:37;94674.66;;;3.41;100.00
12775;BME280;6451;42.630;23.382;2023-01-13T02:18:39;94697.03;;;3.50;100.00
12775;BME280;6451;42.630;23.382;2023-01-13T02:24:30;94701.31;;;3.51;100.00
12775;BME280;6451;42.630;23.382;2023-01-13T02:30:41;94694.84;;;3.52;100.00
12775;BME280;6451;42.630;23.382;2023-01-13T02:33:38;94696.84;;;3.60;100.00
12775;BME280;6451;42.630;23.382;2023-01-13T02:36:14;94698.72;;;3.46;100.00
12775;BME280;6451;42.630;23.382;2023-01-13T02:38:49;94704.78;;;3.51;100.00
12775;BME280;6451;42.630;23.382;2023-01-13T02:41:23;94670.19;;;3.17;100.00
12775;BME280;6451;42.630;23.382;2023-01-13T02:44:10;94698.63;;;3.51;100.00
12775;BME280;6451;42.630;23.382;2023-01-13T02:46:48;94713.06;;;3.55;100.00
12775;BME280;6451;42.630;23.382;2023-01-13T02:49:22;94703.50;;;3.49;100.00
12775;BME280;6451;42.630;23.382;2023-01-13T02:51:53;94706.97;;;3.49;100.00
12775;BME280;6451;42.630;23.382;2023-01-13T02:54:25;94691.16;;;3.48;100.00
12775;BME280;6451;42.630;23.382;2023-01-13T02:56:54;94693.97;;;3.56;100.00
12775;BME280;6451;42.630;23.382;2023-01-13T02:59:25;94689.88;;;3.45;100.00
12775;BME280;6451;42.630;23.382;2023-01-13T03:01:55;94698.41;;;3.47;100.00
12775;BME280;6451;42.630;23.382;2023-01-13T03:04:43;94707.69;;;3.55;100.00
12775;BME280;6451;42.630;23.382;2023-01-13T03:07:22;94705.06;;;3.50;100.00
12775;BME280;6451;42.630;23.382;2023-01-13T03:10:01;94695.00;;;3.42;100.00
12775;BME280;6451;42.630;23.382;2023-01-13T03:12:38;94632.41;;;3.14;100.00
12775;BME280;6451;42.630;23.382;2023-01-13T03:15:15;94685.94;;;3.56;100.00
12775;BME280;6451;42.630;23.382;2023-01-13T03:17:50;94693.69;;;3.58;100.00
12775;BME280;6451;42.630;23.382;2023-01-13T03:20:24;94709.09;;;3.66;100.00
12775;BME280;6451;42.630;23.382;2023-01-13T03:22:57;94677.16;;;3.51;100.00
12775;BME280;6451;42.630;23.382;2023-01-13T03:25:28;94675.75;;;3.40;100.00
12775;BME280;6451;42.630;23.382;2023-01-13T03:28:01;94687.09;;;3.50;100.00
12775;BME280;6451;42.630;23.382;2023-01-13T03:30:32;94697.81;;;3.69;100.00
12775;BME280;6451;42.630;23.382;2023-01-13T03:33:04;94701.59;;;3.68;100.00
12775;BME280;6451;42.630;23.382;2023-01-13T03:35:35;94693.38;;;3.59;100.00
12775;BME280;6451;42.630;23.382;2023-01-13T03:38:06;94704.66;;;3.75;100.00
12775;BME280;6451;42.630;23.382;2023-01-13T03:40:41;94706.53;;;3.75;100.00
12775;BME280;6451;42.630;23.382;2023-01-13T03:43:13;94699.13;;;3.85;100.00
12775;BME280;6451;42.630;23.382;2023-01-13T03:46:02;94713.06;;;3.87;100.00
12775;BME280;6451;42.630;23.382;2023-01-13T03:48:33;94701.63;;;3.96;100.00
12775;BME280;6451;42.630;23.382;2023-01-13T03:51:04;94673.91;;;3.68;100.00
12775;BME280;6451;42.630;23.382;2023-01-13T03:53:35;94700.72;;;3.86;100.00
12775;BME280;6451;42.630;23.382;2023-01-13T03:56:11;94696.72;;;3.70;100.00
12775;BME280;6451;42.630;23.382;2023-01-13T03:58:43;94691.25;;;3.75;100.00
12775;BME280;6451;42.630;23.382;2023-01-13T04:01:15;94709.63;;;4.01;100.00
12775;BME280;6451;42.630;23.382;2023-01-13T04:03:49;94705.53;;;4.03;100.00
12775;BME280;6451;42.630;23.382;2023-01-13T04:06:24;94708.91;;;3.95;100.00
12775;BME280;6451;42.630;23.382;2023-01-13T04:08:57;94699.44;;;3.98;100.00
12775;BME280;6451;42.630;23.382;2023-01-13T04:11:29;94703.34;;;3.92;100.00
12775;BME280;6451;42.630;23.382;2023-01-13T04:13:58;94708.47;;;3.88;100.00
12775;BME280;6451;42.630;23.382;2023-01-13T04:16:26;94693.16;;;3.88;100.00
12775;BME280;6451;42.630;23.382;2023-01-13T04:18:55;94698.13;;;3.81;100.00
12775;BME280;6451;42.630;23.382;2023-01-13T04:21:21;94716.22;;;3.76;100.00
12775;BME280;6451;42.630;23.382;2023-01-13T04:23:48;94692.13;;;3.71;100.00
12775;BME280;6451;42.630;23.382;2023-01-13T04:26:16;94700.69;;;3.73;100.00
12775;BME280;6451;42.630;23.382;2023-01-13T04:28:44;94721.03;;;3.93;100.00
12775;BME280;6451;42.630;23.382;2023-01-13T04:31:11;94713.47;;;3.95;100.00
12775;BME280;6451;42.630;23.382;2023-01-13T04:33:37;94719.69;;;3.76;100.00
12775;BME280;6451;42.630;23.382;2023-01-13T04:36:06;94731.38;;;3.99;100.00
12775;BME280;6451;42.630;23.382;2023-01-13T04:38:34;94725.38;;;3.88;100.00
12775;BME280;6451;42.630;23.382;2023-01-13T04:41:01;94726.16;;;3.89;100.00
12775;BME280;6451;42.630;23.382;2023-01-13T04:43:27;94730.19;;;3.92;100.00
12775;BME280;6451;42.630;23.382;2023-01-13T04:45:54;94734.56;;;4.01;100.00
12775;BME280;6451;42.630;23.382;2023-01-13T04:48:21;94695.63;;;3.71;100.00
12775;BME280;6451;42.630;23.382;2023-01-13T04:50:48;94732.56;;;3.93;100.00
12775;BME280;6451;42.630;23.382;2023-01-13T04:53:17;94709.03;;;3.71;100.00
12775;BME280;6451;42.630;23.382;2023-01-13T04:55:44;94736.22;;;3.83;100.00
12775;BME280;6451;42.630;23.382;2023-01-13T04:58:14;94729.09;;;3.74;100.00
12775;BME280;6451;42.630;23.382;2023-01-13T05:00:41;94729.47;;;3.86;100.00
12775;BME280;6451;42.630;23.382;2023-01-13T05:03:08;94726.28;;;3.84;100.00
12775;BME280;6451;42.630;23.382;2023-01-13T05:05:35;94673.13;;;3.53;100.00
12775;BME280;6451;42.630;23.382;2023-01-13T05:08:03;94728.47;;;3.96;100.00
12775;BME280;6451;42.630;23.382;2023-01-13T05:10:32;94716.03;;;3.86;100.00
12775;BME280;6451;42.630;23.382;2023-01-13T05:13:00;94729.88;;;3.93;100.00
12775;BME280;6451;42.630;23.382;2023-01-13T05:15:45;94726.03;;;3.99;100.00
12775;BME280;6451;42.630;23.382;2023-01-13T05:18:30;94740.31;;;3.95;100.00
12775;BME280;6451;42.630;23.382;2023-01-13T05:20:58;94736.53;;;3.96;100.00
12775;BME280;6451;42.630;23.382;2023-01-13T05:23:25;94736.03;;;3.94;100.00
12775;BME280;6451;42.630;23.382;2023-01-13T05:26:10;94745.19;;;3.93;100.00
12775;BME280;6451;42.630;23.382;2023-01-13T05:28:37;94712.50;;;3.72;100.00
12775;BME280;6451;42.630;23.382;2023-01-13T05:31:05;94741.59;;;3.97;100.00
12775;BME280;6451;42.630;23.382;2023-01-13T05:33:31;94742.63;;;4.01;100.00
12775;BME280;6451;42.630;23.382;2023-01-13T05:36:01;94734.53;;;3.87;100.00
12775;BME280;6451;42.630;23.382;2023-01-13T05:38:28;94744.16;;;3.88;100.00
12775;BME280;6451;42.630;23.382;2023-01-13T05:40:57;94745.88;;;3.84;100.00
12775;BME280;6451;42.630;23.382;2023-01-13T05:43:46;94741.81;;;4.01;100.00
12775;BME280;6451;42.630;23.382;2023-01-13T05:46:16;94749.63;;;3.83;100.00
12775;BME280;6451;42.630;23.382;2023-01-13T05:48:43;94749.25;;;3.90;100.00
12775;BME280;6451;42.630;23.382;2023-01-13T05:51:11;94752.75;;;3.72;100.00
12775;BME280;6451;42.630;23.382;2023-01-13T05:53:39;94757.59;;;3.88;100.00
12775;BME280;6451;42.630;23.382;2023-01-13T05:56:07;94715.81;;;3.50;100.00
12775;BME280;6451;42.630;23.382;2023-01-13T05:58:35;94753.38;;;3.82;100.00
12775;BME280;6451;42.630;23.382;2023-01-13T06:01:06;94727.31;;;3.69;100.00
12775;BME280;6451;42.630;23.382;2023-01-13T06:03:35;94751.97;;;3.71;100.00
12775;BME280;6451;42.630;23.382;2023-01-13T06:06:03;94763.19;;;3.92;100.00
12775;BME280;6451;42.630;23.382;2023-01-13T06:08:33;94769.66;;;3.91;100.00
12775;BME280;6451;42.630;23.382;2023-01-13T06:11:00;94764.66;;;3.98;100.00
12775;BME280;6451;42.630;23.382;2023-01-13T06:13:29;94772.34;;;3.91;100.00
12775;BME280;6451;42.630;23.382;2023-01-13T06:15:57;94776.88;;;3.90;100.00
12775;BME280;6451;42.630;23.382;2023-01-13T06:18:26;94699.75;;;3.31;100.00
12775;BME280;6451;42.630;23.382;2023-01-13T06:20:54;94776.69;;;3.87;100.00
12775;BME280;6451;42.630;23.382;2023-01-13T06:23:21;94778.94;;;3.80;100.00
12775;BME280;6451;42.630;23.382;2023-01-13T06:25:52;94707.63;;;3.41;100.00
12775;BME280;6451;42.630;23.382;2023-01-13T06:28:22;94725.50;;;3.65;100.00
12775;BME280;6451;42.630;23.382;2023-01-13T06:30:51;94777.72;;;3.91;100.00
12775;BME280;6451;42.630;23.382;2023-01-13T06:33:24;94777.72;;;3.72;100.00
12775;BME280;6451;42.630;23.382;2023-01-13T06:35:59;94761.69;;;3.67;100.00
12775;BME280;6451;42.630;23.382;2023-01-13T06:38:29;94775.25;;;3.76;100.00
12775;BME280;6451;42.630;23.382;2023-01-13T06:40:59;94780.81;;;3.79;100.00
12775;BME280;6451;42.630;23.382;2023-01-13T06:43:26;94770.97;;;3.75;100.00
12775;BME280;6451;42.630;23.382;2023-01-13T06:45:54;94746.47;;;3.44;100.00
12775;BME280;6451;42.630;23.382;2023-01-13T06:48:23;94777.28;;;3.84;100.00
12775;BME280;6451;42.630;23.382;2023-01-13T06:50:51;94762.28;;;3.64;100.00
12775;BME280;6451;42.630;23.382;2023-01-13T06:53:20;94782.78;;;3.93;100.00
12775;BME280;6451;42.630;23.382;2023-01-13T06:55:47;94790.41;;;3.85;100.00
12775;BME280;6451;42.630;23.382;2023-01-13T06:58:15;94782.47;;;3.94;100.00
12775;BME280;6451;42.630;23.382;2023-01-13T07:00:49;94727.41;;;3.64;100.00
12775;BME280;6451;42.630;23.382;2023-01-13T07:03:19;94784.78;;;4.01;100.00
12775;BME280;6451;42.630;23.382;2023-01-13T07:05:51;94784.38;;;3.94;100.00
12775;BME280;6451;42.630;23.382;2023-01-13T07:08:20;94781.31;;;4.14;100.00
12775;BME280;6451;42.630;23.382;2023-01-13T07:10:47;94705.75;;;3.74;100.00
12775;BME280;6451;42.630;23.382;2023-01-13T07:13:14;94761.47;;;4.15;100.00
12775;BME280;6451;42.630;23.382;2023-01-13T07:16:00;94770.06;;;4.31;100.00
12775;BME280;6451;42.630;23.382;2023-01-13T07:18:29;94773.22;;;4.33;100.00
12775;BME280;6451;42.630;23.382;2023-01-13T07:20:57;94768.34;;;4.35;100.00
12775;BME280;6451;42.630;23.382;2023-01-13T07:23:27;94763.34;;;4.28;100.00
12775;BME280;6451;42.630;23.382;2023-01-13T07:25:54;94770.44;;;4.24;100.00
12775;BME280;6451;42.630;23.382;2023-01-13T07:28:22;94774.06;;;4.47;100.00
12775;BME280;6451;42.630;23.382;2023-01-13T07:30:49;94762.00;;;4.44;100.00
12775;BME280;6451;42.630;23.382;2023-01-13T07:33:16;94760.72;;;4.56;100.00
12775;BME280;6451;42.630;23.382;2023-01-13T07:35:47;94756.75;;;4.53;100.00
12775;BME280;6451;42.630;23.382;2023-01-13T07:38:16;94753.84;;;4.63;100.00
12775;BME280;6451;42.630;23.382;2023-01-13T07:40:44;94756.25;;;4.65;100.00
12775;BME280;6451;42.630;23.382;2023-01-13T07:43:11;94760.13;;;4.72;100.00
12775;BME280;6451;42.630;23.382;2023-01-13T07:45:54;94763.78;;;4.90;100.00
12775;BME280;6451;42.630;23.382;2023-01-13T07:48:22;94761.72;;;5.01;100.00
12775;BME280;6451;42.630;23.382;2023-01-13T07:50:49;94765.91;;;4.93;100.00
12775;BME280;6451;42.630;23.382;2023-01-13T07:53:16;94730.66;;;4.67;100.00
12775;BME280;6451;42.630;23.382;2023-01-13T07:55:45;94766.59;;;4.99;100.00
12775;BME280;6451;42.630;23.382;2023-01-13T07:58:12;94767.09;;;5.01;100.00
12775;BME280;6451;42.630;23.382;2023-01-13T08:00:39;94769.28;;;4.99;100.00
12775;BME280;6451;42.630;23.382;2023-01-13T08:03:07;94778.00;;;5.32;100.00
12775;BME280;6451;42.630;23.382;2023-01-13T08:05:34;94782.22;;;5.11;100.00
12775;BME280;6451;42.630;23.382;2023-01-13T08:08:00;94777.09;;;5.37;100.00
12775;BME280;6451;42.630;23.382;2023-01-13T08:10:27;94767.84;;;5.29;100.00
12775;BME280;6451;42.630;23.382;2023-01-13T08:12:56;94778.47;;;5.48;100.00
12775;BME280;6451;42.630;23.382;2023-01-13T08:15:40;94774.03;;;5.66;100.00
12775;BME280;6451;42.630;23.382;2023-01-13T08:18:07;94775.63;;;5.89;100.00
12775;BME280;6451;42.630;23.382;2023-01-13T08:20:34;94781.28;;;5.79;100.00
12775;BME280;6451;42.630;23.382;2023-01-13T08:23:01;94778.88;;;5.77;100.00
12775;BME280;6451;42.630;23.382;2023-01-13T08:25:29;94769.22;;;5.40;100.00
12775;BME280;6451;42.630;23.382;2023-01-13T08:27:57;94781.44;;;5.60;100.00
12775;BME280;6451;42.630;23.382;2023-01-13T08:30:25;94747.63;;;5.68;100.00
12775;BME280;6451;42.630;23.382;2023-01-13T08:32:52;94751.66;;;5.79;100.00
12775;BME280;6451;42.630;23.382;2023-01-13T08:35:20;94710.16;;;5.80;100.00
12775;BME280;6451;42.630;23.382;2023-01-13T08:37:48;94745.50;;;6.01;100.00
12775;BME280;6451;42.630;23.382;2023-01-13T08:40:16;94773.72;;;6.26;100.00
12775;BME280;6451;42.630;23.382;2023-01-13T08:42:43;94762.22;;;6.43;100.00
12775;BME280;6451;42.630;23.382;2023-01-13T08:45:12;94757.47;;;6.79;100.00
12775;BME280;6451;42.630;23.382;2023-01-13T08:47:39;94759.25;;;6.44;100.00
12775;BME280;6451;42.630;23.382;2023-01-13T08:50:07;94740.50;;;6.39;100.00
12775;BME280;6451;42.630;23.382;2023-01-13T08:52:34;94742.66;;;6.28;100.00
12775;BME280;6451;42.630;23.382;2023-01-13T08:55:02;94750.16;;;6.40;100.00
12775;BME280;6451;42.630;23.382;2023-01-13T08:57:28;94747.47;;;6.71;100.00
12775;BME280;6451;42.630;23.382;2023-01-13T08:59:55;94751.22;;;6.61;100.00
12775;BME280;6451;42.630;23.382;2023-01-13T09:02:24;94737.41;;;6.54;100.00
12775;BME280;6451;42.630;23.382;2023-01-13T09:04:51;94715.88;;;6.72;100.00
12775;BME280;6451;42.630;23.382;2023-01-13T09:07:19;94723.19;;;6.71;100.00
12775;BME280;6451;42.630;23.382;2023-01-13T09:09:46;94741.16;;;6.76;100.00
12775;BME280;6451;42.630;23.382;2023-01-13T09:12:14;94708.25;;;6.25;100.00
12775;BME280;6451;42.630;23.382;2023-01-13T09:14:59;94750.78;;;6.68;100.00
12775;BME280;6451;42.630;23.382;2023-01-13T09:17:28;94744.94;;;6.44;100.00
12775;BME280;6451;42.630;23.382;2023-01-13T09:19:56;94754.63;;;6.76;100.00
12775;BME280;6451;42.630;23.382;2023-01-13T09:22:23;94750.91;;;6.63;100.00
12775;BME280;6451;42.630;23.382;2023-01-13T09:24:51;94725.97;;;6.57;100.00
12775;BME280;6451;42.630;23.382;2023-01-13T09:27:19;94727.44;;;6.63;100.00
12775;BME280;6451;42.630;23.382;2023-01-13T09:29:45;94738.13;;;6.77;100.00
12775;BME280;6451;42.630;23.382;2023-01-13T09:32:13;94747.31;;;6.67;100.00
12775;BME280;6451;42.630;23.382;2023-01-13T09:34:41;94742.81;;;6.63;100.00
12775;BME280;6451;42.630;23.382;2023-01-13T09:37:26;94736.72;;;6.88;100.00
12775;BME280;6451;42.630;23.382;2023-01-13T09:40:00;94731.63;;;6.78;100.00
12775;BME280;6451;42.630;23.382;2023-01-13T09:42:40;94739.94;;;6.90;100.00
12775;BME280;6451;42.630;23.382;2023-01-13T09:45:42;94733.91;;;6.93;100.00
12775;BME280;6451;42.630;23.382;2023-01-13T09:48:14;94742.59;;;6.20;100.00
12775;BME280;6451;42.630;23.382;2023-01-13T09:50:58;94744.09;;;6.34;100.00
12775;BME280;6451;42.630;23.382;2023-01-13T09:53:28;94746.19;;;6.68;100.00
12775;BME280;6451;42.630;23.382;2023-01-13T09:55:56;94738.66;;;6.57;100.00
12775;BME280;6451;42.630;23.382;2023-01-13T09:58:24;94716.91;;;6.45;100.00
12775;BME280;6451;42.630;23.382;2023-01-13T10:01:03;94739.78;;;6.56;100.00
12775;BME280;6451;42.630;23.382;2023-01-13T10:03:32;94657.25;;;6.37;100.00
12775;BME280;6451;42.630;23.382;2023-01-13T10:06:08;94638.03;;;6.22;100.00
12775;BME280;6451;42.630;23.382;2023-01-13T10:08:38;94741.06;;;6.58;100.00
12775;BME280;6451;42.630;23.382;2023-01-13T10:11:12;94733.31;;;6.65;100.00
12775;BME280;6451;42.630;23.382;2023-01-13T10:13:57;94733.28;;;6.57;100.00
12775;BME280;6451;42.630;23.382;2023-01-13T10:16:35;94524.38;;;4.95;100.00
12775;BME280;6451;42.630;23.382;2023-01-13T10:19:14;94729.59;;;6.44;100.00
12775;BME280;6451;42.630;23.382;2023-01-13T10:22:11;94722.75;;;6.38;100.00
12775;BME280;6451;42.630;23.382;2023-01-13T10:25:02;94705.91;;;6.32;100.00
12775;BME280;6451;42.630;23.382;2023-01-13T10:27:32;94639.22;;;5.84;100.00
12775;BME280;6451;42.630;23.382;2023-01-13T10:30:10;94682.63;;;6.36;100.00
12775;BME280;6451;42.630;23.382;2023-01-13T10:32:41;94517.16;;;5.05;100.00
12775;BME280;6451;42.630;23.382;2023-01-13T10:35:08;94718.88;;;6.61;100.00
12775;BME280;6451;42.630;23.382;2023-01-13T10:37:37;94725.97;;;6.57;100.00
12775;BME280;6451;42.630;23.382;2023-01-13T10:40:05;94716.59;;;6.46;100.00
12775;BME280;6451;42.630;23.382;2023-01-13T10:42:42;94715.66;;;6.20;100.00
12775;BME280;6451;42.630;23.382;2023-01-13T10:45:18;94716.63;;;6.24;100.00
12775;BME280;6451;42.630;23.382;2023-01-13T10:48:03;94690.84;;;6.31;100.00
12775;BME280;6451;42.630;23.382;2023-01-13T10:50:33;94712.75;;;6.38;100.00
12775;BME280;6451;42.630;23.382;2023-01-13T10:53:16;94650.53;;;6.26;100.00
12775;BME280;6451;42.630;23.382;2023-01-13T10:55:58;94710.84;;;6.39;100.00
12775;BME280;6451;42.630;23.382;2023-01-13T10:58:25;94705.03;;;6.15;100.00
12775;BME280;6451;42.630;23.382;2023-01-13T11:01:00;94574.81;;;5.66;100.00
12775;BME280;6451;42.630;23.382;2023-01-13T11:03:35;94630.91;;;5.95;100.00
12775;BME280;6451;42.630;23.382;2023-01-13T11:06:07;94676.31;;;6.50;100.00
12775;BME280;6451;42.630;23.382;2023-01-13T11:08:46;94695.78;;;6.78;100.00
12775;BME280;6451;42.630;23.382;2023-01-13T11:11:26;94690.56;;;6.41;100.00
12775;BME280;6451;42.630;23.382;2023-01-13T11:13:55;94695.22;;;6.58;100.00
12775;BME280;6451;42.630;23.382;2023-01-13T11:16:48;94693.88;;;6.38;100.00
12775;BME280;6451;42.630;23.382;2023-01-13T11:19:17;94590.94;;;5.57;100.00
12775;BME280;6451;42.630;23.382;2023-01-13T11:21:49;94689.44;;;6.43;100.00
12775;BME280;6451;42.630;23.382;2023-01-13T11:24:26;94684.25;;;6.46;100.00
12775;BME280;6451;42.630;23.382;2023-01-13T11:26:59;94683.97;;;6.56;100.00
12775;BME280;6451;42.630;23.382;2023-01-13T11:29:30;94623.34;;;6.05;100.00
12775;BME280;6451;42.630;23.382;2023-01-13T11:32:04;94684.25;;;6.46;100.00
12775;BME280;6451;42.630;23.382;2023-01-13T11:34:35;94412.28;;;5.05;100.00
12775;BME280;6451;42.630;23.382;2023-01-13T11:37:09;94682.69;;;6.54;100.00
12775;BME280;6451;42.630;23.382;2023-01-13T11:39:47;94680.34;;;6.61;100.00
12775;BME280;6451;42.630;23.382;2023-01-13T11:42:23;94673.88;;;6.79;100.00
12775;BME280;6451;42.630;23.382;2023-01-13T11:45:00;94667.19;;;6.68;100.00
12775;BME280;6451;42.630;23.382;2023-01-13T11:47:30;94672.97;;;6.92;100.00
12775;BME280;6451;42.630;23.382;2023-01-13T11:49:58;94670.41;;;6.96;100.00
12775;BME280;6451;42.630;23.382;2023-01-13T11:52:32;94679.22;;;7.36;100.00
12775;BME280;6451;42.630;23.382;2023-01-13T11:55:22;94668.09;;;7.38;100.00
12775;BME280;6451;42.630;23.382;2023-01-13T12:01:01;94662.03;;;7.06;100.00
12775;BME280;6451;42.630;23.382;2023-01-13T12:03:32;94669.63;;;7.13;100.00
12775;BME280;6451;42.630;23.382;2023-01-13T12:06:15;94600.59;;;6.86;100.00
12775;BME280;6451;42.630;23.382;2023-01-13T12:09:05;94621.06;;;6.95;100.00
12775;BME280;6451;42.630;23.382;2023-01-13T12:11:46;94650.13;;;7.24;100.00
12775;BME280;6451;42.630;23.382;2023-01-13T12:14:39;94667.31;;;7.37;100.00
12775;BME280;6451;42.630;23.382;2023-01-13T12:17:20;94646.19;;;7.22;100.00
12775;BME280;6451;42.630;23.382;2023-01-13T12:19:49;94647.59;;;7.19;100.00
12775;BME280;6451;42.630;23.382;2023-01-13T12:22:20;94647.75;;;7.32;100.00
12775;BME280;6451;42.630;23.382;2023-01-13T12:24:52;94644.41;;;7.35;100.00
12775;BME280;6451;42.630;23.382;2023-01-13T12:27:29;94647.75;;;7.06;100.00
12775;BME280;6451;42.630;23.382;2023-01-13T12:30:02;94632.16;;;6.77;100.00
12775;BME280;6451;42.630;23.382;2023-01-13T12:32:37;94647.81;;;6.66;100.00
12775;BME280;6451;42.630;23.382;2023-01-13T12:35:20;94664.69;;;6.97;100.00
12775;BME280;6451;42.630;23.382;2023-01-13T12:37:53;94663.63;;;7.07;100.00
12775;BME280;6451;42.630;23.382;2023-01-13T12:40:35;94659.50;;;7.10;100.00
12775;BME280;6451;42.630;23.382;2023-01-13T12:43:14;94660.59;;;7.43;100.00
12775;BME280;6451;42.630;23.382;2023-01-13T12:46:34;94661.22;;;7.66;100.00
12775;BME280;6451;42.630;23.382;2023-01-13T12:52:13;94662.69;;;7.38;100.00
12775;BME280;6451;42.630;23.382;2023-01-13T12:55:16;94666.34;;;7.24;100.00
12775;BME280;6451;42.630;23.382;2023-01-13T12:58:16;94662.97;;;7.28;100.00
12775;BME280;6451;42.630;23.382;2023-01-13T13:00:59;94667.75;;;7.39;100.00
12775;BME280;6451;42.630;23.382;2023-01-13T13:03:33;94551.22;;;6.59;100.00
12775;BME280;6451;42.630;23.382;2023-01-13T13:06:07;94673.50;;;7.38;100.00
12775;BME280;6451;42.630;23.382;2023-01-13T13:08:45;94672.84;;;7.41;100.00
12775;BME280;6451;42.630;23.382;2023-01-13T13:11:34;94664.75;;;7.49;100.00
12775;BME280;6451;42.630;23.382;2023-01-13T13:17:41;94677.44;;;7.14;100.00
12775;BME280;6451;42.630;23.382;2023-01-13T13:26:40;94695.47;;;6.88;100.00
12775;BME280;6451;42.630;23.382;2023-01-13T13:29:38;94685.94;;;6.82;100.00
12775;BME280;6451;42.630;23.382;2023-01-13T13:32:25;94653.50;;;6.47;100.00
12775;BME280;6451;42.630;23.382;2023-01-13T13:35:06;94676.88;;;6.69;100.00
12775;BME280;6451;42.630;23.382;2023-01-13T13:37:46;94645.09;;;6.49;100.00
12775;BME280;6451;42.630;23.382;2023-01-13T13:40:39;94685.47;;;6.88;100.00
12775;BME280;6451;42.630;23.382;2023-01-13T13:43:24;94690.88;;;6.88;100.00
12775;BME280;6451;42.630;23.382;2023-01-13T13:46:28;94685.88;;;6.64;100.00
12775;BME280;6451;42.630;23.382;2023-01-13T13:49:15;94691.97;;;6.87;100.00
12775;BME280;6451;42.630;23.382;2023-01-13T13:51:47;94684.34;;;6.89;100.00
12775;BME280;6451;42.630;23.382;2023-01-13T13:54:21;94691.69;;;6.97;100.00
12775;BME280;6451;42.630;23.382;2023-01-13T13:56:48;94691.81;;;6.84;100.00